sensor_id;sensor_type;location;lat;lon;timestamp;temperature;humidity
13711;DHT22;6927;51.256;9.410;2023-07-13T00:00:44;17.80;99.90
13711;DHT22;6927;51.256;9.410;2023-07-13T00:03:09;17.90;99.90
13711;DHT22;6927;51.256;9.410;2023-07-13T00:05:39;17.90;99.90
13711;DHT22;6927;51.256;9.410;2023-07-13T00:08:06;17.90;99.90
13711;DHT22;6927;51.256;9.410;2023-07-13T00:10:33;17.90;99.90
13711;DHT22;6927;51.256;9.410;2023-07-13T00:12:59;17.90;99.90
13711;DHT22;6927;51.256;9.410;2023-07-13T00:15:26;17.90;99.90
13711;DHT22;6927;51.256;9.410;2023-07-13T00:17:53;17.90;99.90
13711;DHT22;6927;51.256;9.410;2023-07-13T00:20:21;17.90;99.90
13711;DHT22;6927;51.256;9.410;2023-07-13T00:22:48;17.90;99.90
13711;DHT22;6927;51.256;9.410;2023-07-13T00:25:14;18.00;99.90
13711;DHT22;6927;51.256;9.410;2023-07-13T00:27:42;18.00;99.90
13711;DHT22;6927;51.256;9.410;2023-07-13T00:30:08;18.00;99.90
13711;DHT22;6927;51.256;9.410;2023-07-13T00:32:34;18.00;99.90
13711;DHT22;6927;51.256;9.410;2023-07-13T00:35:01;18.00;99.90
13711;DHT22;6927;51.256;9.410;2023-07-13T00:37:26;17.90;99.90
13711;DHT22;6927;51.256;9.410;2023-07-13T00:39:52;17.90;99.90
13711;DHT22;6927;51.256;9.410;2023-07-13T00:42:18;17.90;99.90
13711;DHT22;6927;51.256;9.410;2023-07-13T00:45:07;17.80;99.90
13711;DHT22;6927;51.256;9.410;2023-07-13T00:47:32;17.80;99.90
13711;DHT22;6927;51.256;9.410;2023-07-13T00:49:58;17.80;99.90
13711;DHT22;6927;51.256;9.410;2023-07-13T00:52:24;17.70;99.90
13711;DHT22;6927;51.256;9.410;2023-07-13T00:54:50;17.70;99.90
13711;DHT22;6927;51.256;9.410;2023-07-13T00:57:18;17.60;99.90
13711;DHT22;6927;51.256;9.410;2023-07-13T00:59:50;17.60;99.90
13711;DHT22;6927;51.256;9.410;2023-07-13T01:02:16;17.60;99.90
13711;DHT22;6927;51.256;9.410;2023-07-13T01:04:42;17.50;99.90
13711;DHT22;6927;51.256;9.410;2023-07-13T01:07:11;17.50;99.90
13711;DHT22;6927;51.256;9.410;2023-07-13T01:09:37;17.50;99.90
13711;DHT22;6927;51.256;9.410;2023-07-13T01:12:03;17.50;99.90
13711;DHT22;6927;51.256;9.410;2023-07-13T01:14:29;17.50;99.90
13711;DHT22;6927;51.256;9.410;2023-07-13T01:16:55;17.50;99.90
13711;DHT22;6927;51.256;9.410;2023-07-13T01:21:50;17.40;99.90
13711;DHT22;6927;51.256;9.410;2023-07-13T01:24:16;17.50;99.90
13711;DHT22;6927;51.256;9.410;2023-07-13T01:26:41;17.50;99.90
13711;DHT22;6927;51.256;9.410;2023-07-13T01:29:07;17.50;99.90
13711;DHT22;6927;51.256;9.410;2023-07-13T01:31:33;17.50;99.90
13711;DHT22;6927;51.256;9.410;2023-07-13T01:33:59;17.40;99.90
13711;DHT22;6927;51.256;9.410;2023-07-13T01:36:24;17.40;99.90
13711;DHT22;6927;51.256;9.410;2023-07-13T01:38:50;17.30;99.90
13711;DHT22;6927;51.256;9.410;2023-07-13T01:41:16;17.40;99.90
13711;DHT22;6927;51.256;9.410;2023-07-13T01:43:41;17.30;99.90
13711;DHT22;6927;51.256;9.410;2023-07-13T01:46:07;17.30;99.90
13711;DHT22;6927;51.256;9.410;2023-07-13T01:48:33;17.30;99.90
13711;DHT22;6927;51.256;9.410;2023-07-13T01:50:58;17.40;99.90
13711;DHT22;6927;51.256;9.410;2023-07-13T01:53:24;17.40;99.90
13711;DHT22;6927;51.256;9.410;2023-07-13T01:55:50;17.40;99.90
13711;DHT22;6927;51.256;9.410;2023-07-13T01:58:15;17.40;99.90
13711;DHT22;6927;51.256;9.410;2023-07-13T02:00:41;17.40;99.90
13711;DHT22;6927;51.256;9.410;2023-07-13T02:03:06;17.40;99.90
13711;DHT22;6927;51.256;9.410;2023-07-13T02:05:32;17.30;99.90
13711;DHT22;6927;51.256;9.410;2023-07-13T02:07:57;17.30;99.90
13711;DHT22;6927;51.256;9.410;2023-07-13T02:10:24;17.30;99.90
13711;DHT22;6927;51.256;9.410;2023-07-13T02:12:50;17.30;99.90
13711;DHT22;6927;51.256;9.410;2023-07-13T02:15:17;17.30;99.90
13711;DHT22;6927;51.256;9.410;2023-07-13T02:17:48;17.30;99.90
13711;DHT22;6927;51.256;9.410;2023-07-13T02:20:14;17.20;99.90
13711;DHT22;6927;51.256;9.410;2023-07-13T02:22:39;17.00;99.90
13711;DHT22;6927;51.256;9.410;2023-07-13T02:25:11;16.90;99.90
13711;DHT22;6927;51.256;9.410;2023-07-13T02:27:37;16.90;99.90
13711;DHT22;6927;51.256;9.410;2023-07-13T02:30:02;16.80;99.90
13711;DHT22;6927;51.256;9.410;2023-07-13T02:32:28;16.70;99.90
13711;DHT22;6927;51.256;9.410;2023-07-13T02:34:53;16.70;99.90
13711;DHT22;6927;51.256;9.410;2023-07-13T02:37:19;16.60;99.90
13711;DHT22;6927;51.256;9.410;2023-07-13T02:39:45;16.50;99.90
13711;DHT22;6927;51.256;9.410;2023-07-13T02:42:10;16.40;99.90
13711;DHT22;6927;51.256;9.410;2023-07-13T02:44:36;16.30;99.90
13711;DHT22;6927;51.256;9.410;2023-07-13T02:47:02;16.20;99.90
13711;DHT22;6927;51.256;9.410;2023-07-13T02:49:27;16.10;99.90
13711;DHT22;6927;51.256;9.410;2023-07-13T02:51:53;16.10;99.90
13711;DHT22;6927;51.256;9.410;2023-07-13T02:54:18;16.00;99.90
13711;DHT22;6927;51.256;9.410;2023-07-13T02:56:44;15.90;99.90
13711;DHT22;6927;51.256;9.410;2023-07-13T02:59:10;15.80;99.90
13711;DHT22;6927;51.256;9.410;2023-07-13T03:01:36;15.70;99.90
13711;DHT22;6927;51.256;9.410;2023-07-13T03:04:02;15.60;99.90
13711;DHT22;6927;51.256;9.410;2023-07-13T03:06:28;15.50;99.90
13711;DHT22;6927;51.256;9.410;2023-07-13T03:08:55;15.50;99.90
13711;DHT22;6927;51.256;9.410;2023-07-13T03:11:21;15.50;99.90
13711;DHT22;6927;51.256;9.410;2023-07-13T03:13:47;15.40;99.90
13711;DHT22;6927;51.256;9.410;2023-07-13T03:16:15;15.40;99.90
13711;DHT22;6927;51.256;9.410;2023-07-13T03:18:45;15.30;99.90
13711;DHT22;6927;51.256;9.410;2023-07-13T03:21:11;15.30;99.90
13711;DHT22;6927;51.256;9.410;2023-07-13T03:23:36;15.30;99.90
13711;DHT22;6927;51.256;9.410;2023-07-13T03:26:11;15.20;99.90
13711;DHT22;6927;51.256;9.410;2023-07-13T03:28:38;15.20;99.90
13711;DHT22;6927;51.256;9.410;2023-07-13T03:31:07;15.10;99.90
13711;DHT22;6927;51.256;9.410;2023-07-13T03:33:33;15.10;99.90
13711;DHT22;6927;51.256;9.410;2023-07-13T03:35:59;15.10;99.90
13711;DHT22;6927;51.256;9.410;2023-07-13T03:38:25;15.10;99.90
13711;DHT22;6927;51.256;9.410;2023-07-13T03:40:52;15.10;99.90
13711;DHT22;6927;51.256;9.410;2023-07-13T03:43:17;15.00;99.90
13711;DHT22;6927;51.256;9.410;2023-07-13T03:45:43;15.00;99.90
13711;DHT22;6927;51.256;9.410;2023-07-13T03:48:09;14.90;99.90
13711;DHT22;6927;51.256;9.410;2023-07-13T03:50:34;14.90;99.90
13711;DHT22;6927;51.256;9.410;2023-07-13T03:53:00;14.80;99.90
13711;DHT22;6927;51.256;9.410;2023-07-13T03:55:26;14.80;99.90
13711;DHT22;6927;51.256;9.410;2023-07-13T03:57:58;14.80;99.90
13711;DHT22;6927;51.256;9.410;2023-07-13T04:00:24;14.80;99.90
13711;DHT22;6927;51.256;9.410;2023-07-13T04:02:50;14.90;99.90
13711;DHT22;6927;51.256;9.410;2023-07-13T04:05:16;14.90;99.90
13711;DHT22;6927;51.256;9.410;2023-07-13T04:07:42;14.90;99.90
13711;DHT22;6927;51.256;9.410;2023-07-13T04:10:08;14.90;99.90
13711;DHT22;6927;51.256;9.410;2023-07-13T04:12:33;14.90;99.90
13711;DHT22;6927;51.256;9.410;2023-07-13T04:14:59;14.90;99.90
13711;DHT22;6927;51.256;9.410;2023-07-13T04:17:24;14.90;99.90
13711;DHT22;6927;51.256;9.410;2023-07-13T04:19:50;15.00;99.90
13711;DHT22;6927;51.256;9.410;2023-07-13T04:22:16;15.00;99.90
13711;DHT22;6927;51.256;9.410;2023-07-13T04:24:41;15.10;99.90
13711;DHT22;6927;51.256;9.410;2023-07-13T04:27:07;15.10;99.90
13711;DHT22;6927;51.256;9.410;2023-07-13T04:29:32;15.20;99.90
13711;DHT22;6927;51.256;9.410;2023-07-13T04:31:58;15.20;99.90
13711;DHT22;6927;51.256;9.410;2023-07-13T04:34:24;15.10;99.90
13711;DHT22;6927;51.256;9.410;2023-07-13T04:36:50;15.00;99.90
13711;DHT22;6927;51.256;9.410;2023-07-13T04:39:16;15.00;99.90
13711;DHT22;6927;51.256;9.410;2023-07-13T04:41:42;15.10;99.90
13711;DHT22;6927;51.256;9.410;2023-07-13T04:44:07;15.20;99.90
13711;DHT22;6927;51.256;9.410;2023-07-13T04:46:33;15.30;99.90
13711;DHT22;6927;51.256;9.410;2023-07-13T04:48:58;15.30;99.90
13711;DHT22;6927;51.256;9.410;2023-07-13T04:51:24;15.40;99.90
13711;DHT22;6927;51.256;9.410;2023-07-13T04:53:50;15.40;99.90
13711;DHT22;6927;51.256;9.410;2023-07-13T04:56:15;15.50;99.90
13711;DHT22;6927;51.256;9.410;2023-07-13T04:58:41;15.60;99.90
13711;DHT22;6927;51.256;9.410;2023-07-13T05:01:07;15.70;99.90
13711;DHT22;6927;51.256;9.410;2023-07-13T05:03:34;15.80;99.90
13711;DHT22;6927;51.256;9.410;2023-07-13T05:06:05;15.90;99.90
13711;DHT22;6927;51.256;9.410;2023-07-13T05:08:31;16.00;99.90
13711;DHT22;6927;51.256;9.410;2023-07-13T05:10:56;16.10;99.90
13711;DHT22;6927;51.256;9.410;2023-07-13T05:13:24;16.10;99.90
13711;DHT22;6927;51.256;9.410;2023-07-13T05:15:57;16.10;99.90
13711;DHT22;6927;51.256;9.410;2023-07-13T05:18:23;16.10;99.90
13711;DHT22;6927;51.256;9.410;2023-07-13T05:20:57;16.20;99.90
13711;DHT22;6927;51.256;9.410;2023-07-13T05:23:22;16.30;99.90
13711;DHT22;6927;51.256;9.410;2023-07-13T05:25:48;16.30;99.90
13711;DHT22;6927;51.256;9.410;2023-07-13T05:28:14;16.30;99.90
13711;DHT22;6927;51.256;9.410;2023-07-13T05:30:39;16.40;99.90
13711;DHT22;6927;51.256;9.410;2023-07-13T05:33:04;16.40;99.90
13711;DHT22;6927;51.256;9.410;2023-07-13T05:35:30;16.50;99.90
13711;DHT22;6927;51.256;9.410;2023-07-13T05:37:55;16.60;99.90
13711;DHT22;6927;51.256;9.410;2023-07-13T05:40:21;16.70;99.90
13711;DHT22;6927;51.256;9.410;2023-07-13T05:42:47;16.90;99.90
13711;DHT22;6927;51.256;9.410;2023-07-13T05:45:12;17.00;99.90
13711;DHT22;6927;51.256;9.410;2023-07-13T05:47:37;17.10;99.90
13711;DHT22;6927;51.256;9.410;2023-07-13T05:50:03;17.10;99.90
13711;DHT22;6927;51.256;9.410;2023-07-13T05:52:29;17.20;99.90
13711;DHT22;6927;51.256;9.410;2023-07-13T05:54:55;17.20;99.90
13711;DHT22;6927;51.256;9.410;2023-07-13T05:57:20;17.30;99.90
13711;DHT22;6927;51.256;9.410;2023-07-13T05:59:46;17.40;99.90
13711;DHT22;6927;51.256;9.410;2023-07-13T06:02:11;17.50;99.90
13711;DHT22;6927;51.256;9.410;2023-07-13T06:04:37;17.70;99.90
13711;DHT22;6927;51.256;9.410;2023-07-13T06:07:02;17.70;99.90
13711;DHT22;6927;51.256;9.410;2023-07-13T06:09:28;17.80;99.90
13711;DHT22;6927;51.256;9.410;2023-07-13T06:11:54;17.80;99.90
13711;DHT22;6927;51.256;9.410;2023-07-13T06:14:19;18.00;99.90
13711;DHT22;6927;51.256;9.410;2023-07-13T06:16:45;18.00;99.90
13711;DHT22;6927;51.256;9.410;2023-07-13T06:19:11;18.00;99.90
13711;DHT22;6927;51.256;9.410;2023-07-13T06:21:36;18.00;99.90
13711;DHT22;6927;51.256;9.410;2023-07-13T06:24:02;18.20;99.90
13711;DHT22;6927;51.256;9.410;2023-07-13T06:26:28;18.30;99.90
13711;DHT22;6927;51.256;9.410;2023-07-13T06:28:53;18.40;99.90
13711;DHT22;6927;51.256;9.410;2023-07-13T06:31:19;18.30;99.90
13711;DHT22;6927;51.256;9.410;2023-07-13T06:33:44;18.40;99.90
13711;DHT22;6927;51.256;9.410;2023-07-13T06:36:10;18.60;99.90
13711;DHT22;6927;51.256;9.410;2023-07-13T06:38:36;18.80;99.90
13711;DHT22;6927;51.256;9.410;2023-07-13T06:41:03;19.10;99.90
13711;DHT22;6927;51.256;9.410;2023-07-13T06:43:29;19.40;99.90
13711;DHT22;6927;51.256;9.410;2023-07-13T06:45:57;19.80;99.90
13711;DHT22;6927;51.256;9.410;2023-07-13T06:48:23;20.50;99.90
13711;DHT22;6927;51.256;9.410;2023-07-13T06:50:50;21.30;99.90
13711;DHT22;6927;51.256;9.410;2023-07-13T06:53:17;21.90;99.90
13711;DHT22;6927;51.256;9.410;2023-07-13T06:55:44;22.40;99.90
13711;DHT22;6927;51.256;9.410;2023-07-13T06:58:10;22.90;99.90
13711;DHT22;6927;51.256;9.410;2023-07-13T07:00:36;23.30;99.90
13711;DHT22;6927;51.256;9.410;2023-07-13T07:03:02;23.40;99.90
13711;DHT22;6927;51.256;9.410;2023-07-13T07:05:28;23.70;99.90
13711;DHT22;6927;51.256;9.410;2023-07-13T07:07:54;23.60;99.90
13711;DHT22;6927;51.256;9.410;2023-07-13T07:10:21;24.00;99.90
13711;DHT22;6927;51.256;9.410;2023-07-13T07:12:46;24.20;99.90
13711;DHT22;6927;51.256;9.410;2023-07-13T07:15:12;24.50;99.90
13711;DHT22;6927;51.256;9.410;2023-07-13T07:17:38;25.20;99.90
13711;DHT22;6927;51.256;9.410;2023-07-13T07:20:05;25.50;99.90
13711;DHT22;6927;51.256;9.410;2023-07-13T07:22:31;25.60;99.90
13711;DHT22;6927;51.256;9.410;2023-07-13T07:24:57;25.60;99.90
13711;DHT22;6927;51.256;9.410;2023-07-13T07:27:23;25.40;99.90
13711;DHT22;6927;51.256;9.410;2023-07-13T07:29:49;25.30;99.90
13711;DHT22;6927;51.256;9.410;2023-07-13T07:32:16;26.10;99.90
13711;DHT22;6927;51.256;9.410;2023-07-13T07:34:41;26.70;99.90
13711;DHT22;6927;51.256;9.410;2023-07-13T07:37:09;26.80;99.90
13711;DHT22;6927;51.256;9.410;2023-07-13T07:39:36;26.70;99.90
13711;DHT22;6927;51.256;9.410;2023-07-13T07:42:01;26.80;99.90
13711;DHT22;6927;51.256;9.410;2023-07-13T07:44:27;26.90;99.90
13711;DHT22;6927;51.256;9.410;2023-07-13T07:46:53;27.10;99.90
13711;DHT22;6927;51.256;9.410;2023-07-13T07:49:20;27.50;99.90
13711;DHT22;6927;51.256;9.410;2023-07-13T07:51:45;27.30;99.90
13711;DHT22;6927;51.256;9.410;2023-07-13T07:54:12;27.50;99.90
13711;DHT22;6927;51.256;9.410;2023-07-13T07:56:37;28.10;99.90
13711;DHT22;6927;51.256;9.410;2023-07-13T07:59:03;28.40;99.90
13711;DHT22;6927;51.256;9.410;2023-07-13T08:01:28;28.20;99.90
13711;DHT22;6927;51.256;9.410;2023-07-13T08:03:54;28.00;99.90
13711;DHT22;6927;51.256;9.410;2023-07-13T08:06:19;27.40;99.90
13711;DHT22;6927;51.256;9.410;2023-07-13T08:08:45;26.70;99.90
13711;DHT22;6927;51.256;9.410;2023-07-13T08:11:11;26.20;99.90
13711;DHT22;6927;51.256;9.410;2023-07-13T08:13:37;26.50;99.90
13711;DHT22;6927;51.256;9.410;2023-07-13T08:16:05;26.90;99.90
13711;DHT22;6927;51.256;9.410;2023-07-13T08:18:30;26.40;99.90
13711;DHT22;6927;51.256;9.410;2023-07-13T08:20:56;26.50;99.90
13711;DHT22;6927;51.256;9.410;2023-07-13T08:23:22;26.90;99.90
13711;DHT22;6927;51.256;9.410;2023-07-13T08:25:52;26.70;99.90
13711;DHT22;6927;51.256;9.410;2023-07-13T08:28:19;27.30;99.90
13711;DHT22;6927;51.256;9.410;2023-07-13T08:30:45;28.00;99.90
13711;DHT22;6927;51.256;9.410;2023-07-13T08:33:15;28.70;99.90
13711;DHT22;6927;51.256;9.410;2023-07-13T08:35:40;28.70;99.90
13711;DHT22;6927;51.256;9.410;2023-07-13T08:38:06;29.40;99.90
13711;DHT22;6927;51.256;9.410;2023-07-13T08:40:33;28.90;99.90
13711;DHT22;6927;51.256;9.410;2023-07-13T08:43:00;27.80;99.90
13711;DHT22;6927;51.256;9.410;2023-07-13T08:45:29;26.90;99.90
13711;DHT22;6927;51.256;9.410;2023-07-13T08:48:25;26.50;99.90
13711;DHT22;6927;51.256;9.410;2023-07-13T08:51:17;26.70;99.90
13711;DHT22;6927;51.256;9.410;2023-07-13T08:53:49;27.80;99.90
13711;DHT22;6927;51.256;9.410;2023-07-13T08:56:19;28.10;99.90
13711;DHT22;6927;51.256;9.410;2023-07-13T08:58:49;28.00;99.90
13711;DHT22;6927;51.256;9.410;2023-07-13T09:04:05;26.80;99.90
13711;DHT22;6927;51.256;9.410;2023-07-13T09:06:45;26.90;99.90
13711;DHT22;6927;51.256;9.410;2023-07-13T09:09:27;27.10;99.90
13711;DHT22;6927;51.256;9.410;2023-07-13T09:12:17;27.80;99.90
13711;DHT22;6927;51.256;9.410;2023-07-13T09:14:55;28.70;99.90
13711;DHT22;6927;51.256;9.410;2023-07-13T09:17:44;29.40;99.90
13711;DHT22;6927;51.256;9.410;2023-07-13T09:20:20;29.60;99.90
13711;DHT22;6927;51.256;9.410;2023-07-13T09:22:47;30.30;99.90
13711;DHT22;6927;51.256;9.410;2023-07-13T09:25:35;30.70;99.90
13711;DHT22;6927;51.256;9.410;2023-07-13T09:28:16;31.00;99.90
13711;DHT22;6927;51.256;9.410;2023-07-13T09:31:02;30.30;99.90
13711;DHT22;6927;51.256;9.410;2023-07-13T09:33:28;30.20;99.90
13711;DHT22;6927;51.256;9.410;2023-07-13T09:35:56;30.30;99.90
13711;DHT22;6927;51.256;9.410;2023-07-13T09:38:27;30.20;99.90
13711;DHT22;6927;51.256;9.410;2023-07-13T09:44:17;29.70;99.90
13711;DHT22;6927;51.256;9.410;2023-07-13T09:46:54;29.90;99.90
13711;DHT22;6927;51.256;9.410;2023-07-13T09:49:27;29.80;99.90
13711;DHT22;6927;51.256;9.410;2023-07-13T09:52:02;29.80;99.90
13711;DHT22;6927;51.256;9.410;2023-07-13T09:54:28;29.00;99.90
13711;DHT22;6927;51.256;9.410;2023-07-13T09:56:55;29.00;99.90
13711;DHT22;6927;51.256;9.410;2023-07-13T09:59:23;29.20;99.90
13711;DHT22;6927;51.256;9.410;2023-07-13T10:01:50;29.60;99.90
13711;DHT22;6927;51.256;9.410;2023-07-13T10:04:20;29.60;99.90
13711;DHT22;6927;51.256;9.410;2023-07-13T10:06:46;29.50;99.90
13711;DHT22;6927;51.256;9.410;2023-07-13T10:09:18;28.70;99.90
13711;DHT22;6927;51.256;9.410;2023-07-13T10:11:44;27.40;99.90
13711;DHT22;6927;51.256;9.410;2023-07-13T10:14:20;27.20;99.90
13711;DHT22;6927;51.256;9.410;2023-07-13T10:16:46;27.90;99.90
13711;DHT22;6927;51.256;9.410;2023-07-13T10:19:20;28.90;99.90
13711;DHT22;6927;51.256;9.410;2023-07-13T10:21:54;29.50;99.90
13711;DHT22;6927;51.256;9.410;2023-07-13T10:24:23;30.30;99.90
13711;DHT22;6927;51.256;9.410;2023-07-13T10:29:34;31.00;99.90
13711;DHT22;6927;51.256;9.410;2023-07-13T10:32:01;30.30;99.90
13711;DHT22;6927;51.256;9.410;2023-07-13T10:34:26;30.40;99.90
13711;DHT22;6927;51.256;9.410;2023-07-13T10:36:52;30.70;99.90
13711;DHT22;6927;51.256;9.410;2023-07-13T10:39:24;30.90;99.90
13711;DHT22;6927;51.256;9.410;2023-07-13T10:41:55;31.00;99.90
13711;DHT22;6927;51.256;9.410;2023-07-13T10:44:27;30.90;99.90
13711;DHT22;6927;51.256;9.410;2023-07-13T10:47:15;30.20;99.90
13711;DHT22;6927;51.256;9.410;2023-07-13T10:49:43;29.20;99.90
13711;DHT22;6927;51.256;9.410;2023-07-13T10:52:47;28.00;99.90
13711;DHT22;6927;51.256;9.410;2023-07-13T10:55:54;26.80;99.90
13711;DHT22;6927;51.256;9.410;2023-07-13T10:58:41;26.00;99.90
13711;DHT22;6927;51.256;9.410;2023-07-13T11:08:55;24.10;99.90
13711;DHT22;6927;51.256;9.410;2023-07-13T11:11:35;24.10;99.90
13711;DHT22;6927;51.256;9.410;2023-07-13T11:14:03;24.00;99.90
13711;DHT22;6927;51.256;9.410;2023-07-13T11:16:44;24.10;99.90
13711;DHT22;6927;51.256;9.410;2023-07-13T11:22:03;24.60;99.90
13711;DHT22;6927;51.256;9.410;2023-07-13T11:24:55;24.60;99.90
13711;DHT22;6927;51.256;9.410;2023-07-13T11:27:40;25.10;99.90
13711;DHT22;6927;51.256;9.410;2023-07-13T11:36:02;25.60;99.90
13711;DHT22;6927;51.256;9.410;2023-07-13T11:38:38;25.30;99.90
13711;DHT22;6927;51.256;9.410;2023-07-13T11:41:19;25.50;99.90
13711;DHT22;6927;51.256;9.410;2023-07-13T11:43:49;25.20;99.90
13711;DHT22;6927;51.256;9.410;2023-07-13T11:46:16;25.20;99.90
13711;DHT22;6927;51.256;9.410;2023-07-13T11:48:42;25.40;99.90
13711;DHT22;6927;51.256;9.410;2023-07-13T11:51:22;25.80;99.90
13711;DHT22;6927;51.256;9.410;2023-07-13T11:53:51;25.70;99.90
13711;DHT22;6927;51.256;9.410;2023-07-13T11:56:17;25.40;99.90
13711;DHT22;6927;51.256;9.410;2023-07-13T11:58:43;24.90;99.90
13711;DHT22;6927;51.256;9.410;2023-07-13T12:01:26;24.80;99.90
13711;DHT22;6927;51.256;9.410;2023-07-13T12:04:03;25.10;99.90
13711;DHT22;6927;51.256;9.410;2023-07-13T12:06:33;25.20;99.90
13711;DHT22;6927;51.256;9.410;2023-07-13T12:09:02;25.00;99.90
13711;DHT22;6927;51.256;9.410;2023-07-13T12:11:29;24.90;99.90
13711;DHT22;6927;51.256;9.410;2023-07-13T12:13:55;24.70;99.90
13711;DHT22;6927;51.256;9.410;2023-07-13T12:16:28;24.50;99.90
13711;DHT22;6927;51.256;9.410;2023-07-13T12:18:56;24.80;99.90
13711;DHT22;6927;51.256;9.410;2023-07-13T12:21:29;25.00;99.90
13711;DHT22;6927;51.256;9.410;2023-07-13T12:23:55;24.90;99.90
13711;DHT22;6927;51.256;9.410;2023-07-13T12:26:21;25.10;99.90
13711;DHT22;6927;51.256;9.410;2023-07-13T12:28:50;25.10;99.90
13711;DHT22;6927;51.256;9.410;2023-07-13T12:31:41;25.00;99.90
13711;DHT22;6927;51.256;9.410;2023-07-13T12:34:14;24.80;99.90
13711;DHT22;6927;51.256;9.410;2023-07-13T12:36:46;24.90;99.90
13711;DHT22;6927;51.256;9.410;2023-07-13T12:41:53;25.30;99.90
13711;DHT22;6927;51.256;9.410;2023-07-13T12:44:41;25.60;99.90
13711;DHT22;6927;51.256;9.410;2023-07-13T12:47:11;25.60;99.90
13711;DHT22;6927;51.256;9.410;2023-07-13T12:49:44;25.40;99.90
13711;DHT22;6927;51.256;9.410;2023-07-13T12:52:31;25.00;99.90
13711;DHT22;6927;51.256;9.410;2023-07-13T12:55:06;24.90;99.90
13711;DHT22;6927;51.256;9.410;2023-07-13T12:57:48;25.00;99.90
13711;DHT22;6927;51.256;9.410;2023-07-13T13:00:32;25.10;99.90
13711;DHT22;6927;51.256;9.410;2023-07-13T13:03:03;25.30;99.90
13711;DHT22;6927;51.256;9.410;2023-07-13T13:05:30;25.60;99.90
13711;DHT22;6927;51.256;9.410;2023-07-13T13:07:57;25.70;99.90
13711;DHT22;6927;51.256;9.410;2023-07-13T13:10:23;25.70;99.90
13711;DHT22;6927;51.256;9.410;2023-07-13T13:12:50;25.60;99.90
13711;DHT22;6927;51.256;9.410;2023-07-13T13:15:16;25.60;99.90
13711;DHT22;6927;51.256;9.410;2023-07-13T13:17:42;25.60;99.90
13711;DHT22;6927;51.256;9.410;2023-07-13T13:20:19;25.30;99.90
13711;DHT22;6927;51.256;9.410;2023-07-13T13:22:44;25.00;99.90
13711;DHT22;6927;51.256;9.410;2023-07-13T13:25:14;24.80;99.90
13711;DHT22;6927;51.256;9.410;2023-07-13T13:27:44;24.90;99.90
13711;DHT22;6927;51.256;9.410;2023-07-13T13:30:15;25.00;99.90
13711;DHT22;6927;51.256;9.410;2023-07-13T13:32:43;25.10;99.90
13711;DHT22;6927;51.256;9.410;2023-07-13T13:35:17;25.20;99.90
13711;DHT22;6927;51.256;9.410;2023-07-13T13:37:44;25.20;99.90
13711;DHT22;6927;51.256;9.410;2023-07-13T13:40:21;25.10;99.90
13711;DHT22;6927;51.256;9.410;2023-07-13T13:42:50;24.80;99.90
13711;DHT22;6927;51.256;9.410;2023-07-13T13:45:18;24.80;99.90
13711;DHT22;6927;51.256;9.410;2023-07-13T13:47:44;24.70;99.90
13711;DHT22;6927;51.256;9.410;2023-07-13T13:50:17;24.60;99.90
13711;DHT22;6927;51.256;9.410;2023-07-13T13:52:45;24.60;99.90
13711;DHT22;6927;51.256;9.410;2023-07-13T13:55:14;24.50;99.90
13711;DHT22;6927;51.256;9.410;2023-07-13T13:57:40;24.40;99.90
13711;DHT22;6927;51.256;9.410;2023-07-13T14:00:08;24.40;99.90
13711;DHT22;6927;51.256;9.410;2023-07-13T14:02:34;24.50;99.90
13711;DHT22;6927;51.256;9.410;2023-07-13T14:05:02;24.60;99.90
13711;DHT22;6927;51.256;9.410;2023-07-13T14:07:28;24.40;99.90
13711;DHT22;6927;51.256;9.410;2023-07-13T14:09:57;24.30;99.90
13711;DHT22;6927;51.256;9.410;2023-07-13T14:12:23;24.10;99.90
13711;DHT22;6927;51.256;9.410;2023-07-13T14:14:53;24.10;99.90
13711;DHT22;6927;51.256;9.410;2023-07-13T14:17:21;23.90;99.90
13711;DHT22;6927;51.256;9.410;2023-07-13T14:19:49;23.80;99.90
13711;DHT22;6927;51.256;9.410;2023-07-13T14:22:23;23.70;99.90
13711;DHT22;6927;51.256;9.410;2023-07-13T14:24:51;23.60;99.90
13711;DHT22;6927;51.256;9.410;2023-07-13T14:27:16;23.50;99.90
13711;DHT22;6927;51.256;9.410;2023-07-13T14:29:42;23.50;99.90
13711;DHT22;6927;51.256;9.410;2023-07-13T14:32:12;23.50;99.90
13711;DHT22;6927;51.256;9.410;2023-07-13T14:34:38;23.50;99.90
13711;DHT22;6927;51.256;9.410;2023-07-13T14:37:04;23.60;99.90
13711;DHT22;6927;51.256;9.410;2023-07-13T14:39:31;23.50;99.90
13711;DHT22;6927;51.256;9.410;2023-07-13T14:41:57;23.60;99.90
13711;DHT22;6927;51.256;9.410;2023-07-13T14:44:28;23.60;99.90
13711;DHT22;6927;51.256;9.410;2023-07-13T14:46:58;23.70;99.90
13711;DHT22;6927;51.256;9.410;2023-07-13T14:49:29;23.70;99.90
13711;DHT22;6927;51.256;9.410;2023-07-13T14:51:56;23.70;99.90
13711;DHT22;6927;51.256;9.410;2023-07-13T14:54:23;23.80;99.90
13711;DHT22;6927;51.256;9.410;2023-07-13T14:56:49;23.90;99.90
13711;DHT22;6927;51.256;9.410;2023-07-13T14:59:16;24.10;99.90
13711;DHT22;6927;51.256;9.410;2023-07-13T15:01:44;24.30;99.90
13711;DHT22;6927;51.256;9.410;2023-07-13T15:04:10;24.30;99.90
13711;DHT22;6927;51.256;9.410;2023-07-13T15:06:59;24.30;99.90
13711;DHT22;6927;51.256;9.410;2023-07-13T15:09:27;24.10;99.90
13711;DHT22;6927;51.256;9.410;2023-07-13T15:11:55;23.90;99.90
13711;DHT22;6927;51.256;9.410;2023-07-13T15:14:21;24.10;99.90
13711;DHT22;6927;51.256;9.410;2023-07-13T15:16:49;24.20;99.90
13711;DHT22;6927;51.256;9.410;2023-07-13T15:19:16;24.30;99.90
13711;DHT22;6927;51.256;9.410;2023-07-13T15:21:43;24.50;99.90
13711;DHT22;6927;51.256;9.410;2023-07-13T15:24:10;24.60;99.90
13711;DHT22;6927;51.256;9.410;2023-07-13T15:26:36;24.60;99.90
13711;DHT22;6927;51.256;9.410;2023-07-13T15:29:02;24.60;99.90
13711;DHT22;6927;51.256;9.410;2023-07-13T15:31:28;24.60;99.90
13711;DHT22;6927;51.256;9.410;2023-07-13T15:33:55;24.60;99.90
13711;DHT22;6927;51.256;9.410;2023-07-13T15:36:23;24.60;99.90
13711;DHT22;6927;51.256;9.410;2023-07-13T15:38:50;24.60;99.90
13711;DHT22;6927;51.256;9.410;2023-07-13T15:43:43;24.80;99.90
13711;DHT22;6927;51.256;9.410;2023-07-13T15:46:09;24.70;99.90
13711;DHT22;6927;51.256;9.410;2023-07-13T15:48:34;24.80;99.90
13711;DHT22;6927;51.256;9.410;2023-07-13T15:51:03;24.80;99.90
13711;DHT22;6927;51.256;9.410;2023-07-13T15:53:31;24.70;99.90
13711;DHT22;6927;51.256;9.410;2023-07-13T15:55:57;24.70;99.90
13711;DHT22;6927;51.256;9.410;2023-07-13T15:58:23;24.60;99.90
13711;DHT22;6927;51.256;9.410;2023-07-13T16:00:50;24.70;99.90
13711;DHT22;6927;51.256;9.410;2023-07-13T16:03:20;24.90;99.90
13711;DHT22;6927;51.256;9.410;2023-07-13T16:05:46;24.90;99.90
13711;DHT22;6927;51.256;9.410;2023-07-13T16:08:26;24.70;99.90
13711;DHT22;6927;51.256;9.410;2023-07-13T16:10:53;24.60;99.90
13711;DHT22;6927;51.256;9.410;2023-07-13T16:13:20;24.70;99.90
13711;DHT22;6927;51.256;9.410;2023-07-13T16:15:47;24.60;99.90
13711;DHT22;6927;51.256;9.410;2023-07-13T16:18:13;24.60;99.90
13711;DHT22;6927;51.256;9.410;2023-07-13T16:20:45;24.60;99.90
13711;DHT22;6927;51.256;9.410;2023-07-13T16:23:12;24.60;99.90
13711;DHT22;6927;51.256;9.410;2023-07-13T16:25:39;24.50;99.90